createdAt,value
2023-01-19T00:01:01.367Z,98015.38
2023-01-19T00:03:29.957Z,98017.66
2023-01-19T00:05:58.649Z,98009.28
2023-01-19T00:08:27.259Z,98018.28
2023-01-19T00:10:55.866Z,98026.31
2023-01-19T00:13:24.461Z,98023.75
2023-01-19T00:15:53.081Z,98015.88
2023-01-19T00:18:23.239Z,98026.31
2023-01-19T00:20:51.840Z,98022.00
2023-01-19T00:23:21.078Z,98026.63
2023-01-19T00:25:51.172Z,98023.25
2023-01-19T00:28:20.130Z,98025.03
2023-01-19T00:30:48.748Z,98026.78
2023-01-19T00:33:17.312Z,98023.09
2023-01-19T00:35:52.484Z,98024.69
2023-01-19T00:38:21.159Z,98034.19
2023-01-19T00:40:49.880Z,98036.75
2023-01-19T00:43:18.519Z,98037.19
2023-01-19T00:45:47.188Z,98043.00
2023-01-19T00:48:15.892Z,98049.06
2023-01-19T00:50:44.550Z,98043.47
2023-01-19T00:53:14.488Z,98039.59
2023-01-19T00:55:43.118Z,98036.25
2023-01-19T00:58:11.694Z,98043.63
2023-01-19T01:00:40.287Z,98040.41
2023-01-19T01:03:08.962Z,98041.69
2023-01-19T01:05:37.601Z,98036.06
2023-01-19T01:08:06.186Z,98042.34
2023-01-19T01:10:36.150Z,98039.78
2023-01-19T01:13:24.714Z,98039.44
2023-01-19T01:15:54.106Z,98037.03
2023-01-19T01:18:23.000Z,98039.44
2023-01-19T01:20:51.621Z,98044.75
2023-01-19T01:23:22.574Z,98049.53
2023-01-19T01:25:52.642Z,98050.66
2023-01-19T01:28:21.298Z,98056.09
2023-01-19T01:30:54.175Z,98052.25
2023-01-19T01:33:40.543Z,98045.84
2023-01-19T01:36:11.575Z,98051.78
2023-01-19T01:38:40.452Z,98049.22
2023-01-19T01:41:10.581Z,98055.63
2023-01-19T01:43:47.873Z,98054.50
2023-01-19T01:46:17.942Z,98053.41
2023-01-19T01:48:50.950Z,98057.88
2023-01-19T01:51:26.666Z,98058.69
2023-01-19T01:54:09.385Z,98060.13
2023-01-19T01:56:40.746Z,98055.16
2023-01-19T01:59:14.121Z,98055.34
2023-01-19T02:02:00.662Z,98055.63
2023-01-19T02:04:31.398Z,98053.88
2023-01-19T02:07:17.620Z,98065.41
2023-01-19T02:10:03.735Z,98060.59
2023-01-19T02:12:51.313Z,98056.06
2023-01-19T02:15:21.200Z,98057.53
2023-01-19T02:17:50.059Z,98062.50
2023-01-19T02:20:19.170Z,98050.94
2023-01-19T02:22:50.091Z,98052.56
2023-01-19T02:25:20.968Z,98052.88
2023-01-19T02:27:50.479Z,98050.78
2023-01-19T02:30:19.563Z,98053.78
2023-01-19T02:32:48.254Z,98052.38
2023-01-19T02:35:17.136Z,98051.53
2023-01-19T02:37:46.130Z,98067.09
2023-01-19T02:40:16.584Z,98064.84
2023-01-19T02:42:49.468Z,98058.56
2023-01-19T02:45:21.658Z,98070.59
2023-01-19T02:47:51.875Z,98068.81
2023-01-19T02:50:41.803Z,98070.41
2023-01-19T02:53:22.509Z,98068.47
2023-01-19T02:55:56.490Z,98071.19
2023-01-19T02:58:32.367Z,98076.16
2023-01-19T03:01:08.574Z,98076.44
2023-01-19T03:03:46.207Z,98075.50
2023-01-19T03:06:20.065Z,98084.91
2023-01-19T03:08:54.810Z,98075.28
2023-01-19T03:11:26.148Z,98076.28
2023-01-19T03:14:01.736Z,98070.03
2023-01-19T03:16:32.444Z,98078.16
2023-01-19T03:19:06.506Z,98075.75
2023-01-19T03:21:37.236Z,98073.03
2023-01-19T03:24:07.694Z,98073.50
2023-01-19T03:26:39.036Z,98079.13
2023-01-19T03:29:11.650Z,98078.97
2023-01-19T03:31:41.558Z,98085.06
2023-01-19T03:34:12.865Z,98081.81
2023-01-19T03:36:44.765Z,98093.84
2023-01-19T03:39:17.136Z,98083.59
2023-01-19T03:41:48.520Z,98094.38
2023-01-19T03:44:18.590Z,98092.38
2023-01-19T03:46:47.981Z,98088.25
2023-01-19T03:49:16.581Z,98090.50
2023-01-19T03:51:45.232Z,98096.38
2023-01-19T03:54:13.962Z,98090.81
2023-01-19T03:56:43.753Z,98088.69
2023-01-19T03:59:12.387Z,98091.91
2023-01-19T04:01:42.657Z,98095.09
2023-01-19T04:04:11.234Z,98095.06
2023-01-19T04:06:39.939Z,98101.47
2023-01-19T04:09:08.610Z,98097.06
2023-01-19T04:11:37.246Z,98094.34
2023-01-19T04:14:05.989Z,98091.16
2023-01-19T04:16:34.596Z,98091.78
2023-01-19T04:19:04.611Z,98097.88
2023-01-19T04:21:33.255Z,98110.56
2023-01-19T04:24:01.827Z,98093.97
2023-01-19T04:26:30.437Z,98110.50
2023-01-19T04:28:59.177Z,98111.59
2023-01-19T04:31:27.880Z,98104.00
2023-01-19T04:33:57.164Z,98102.97
2023-01-19T04:36:27.604Z,98106.94
2023-01-19T04:38:56.268Z,98113.00
2023-01-19T04:41:24.901Z,98104.31
2023-01-19T04:43:53.532Z,98116.44
2023-01-19T04:46:22.216Z,98108.50
2023-01-19T04:48:50.884Z,98112.69
2023-01-19T04:51:19.521Z,98115.78
2023-01-19T04:53:49.507Z,98117.09
2023-01-19T04:56:18.101Z,98113.53
2023-01-19T04:58:46.779Z,98121.69
2023-01-19T05:01:15.415Z,98117.72
2023-01-19T05:03:44.005Z,98117.41
2023-01-19T05:06:12.705Z,98114.56
2023-01-19T05:08:41.705Z,98117.78
2023-01-19T05:11:12.163Z,98111.84
2023-01-19T05:13:40.741Z,98113.75
2023-01-19T05:16:09.632Z,98120.94
2023-01-19T05:18:38.349Z,98120.44
2023-01-19T05:21:07.363Z,98124.69
2023-01-19T05:23:36.047Z,98116.09
2023-01-19T05:26:04.913Z,98117.94
2023-01-19T05:28:35.477Z,98118.63
2023-01-19T05:31:04.220Z,98128.41
2023-01-19T05:33:32.969Z,98126.06
2023-01-19T05:36:01.606Z,98131.50
2023-01-19T05:38:35.354Z,98132.59
2023-01-19T05:41:04.436Z,98134.06
2023-01-19T05:43:33.085Z,98130.97
2023-01-19T05:46:04.869Z,98135.25
2023-01-19T05:48:33.727Z,98137.13
2023-01-19T05:51:02.663Z,98139.22
2023-01-19T05:53:31.332Z,98139.16
2023-01-19T05:56:03.880Z,98144.28
2023-01-19T05:58:34.366Z,98144.81
2023-01-19T06:01:05.681Z,98151.25
2023-01-19T06:03:35.334Z,98156.28
2023-01-19T06:06:04.936Z,98147.66
2023-01-19T06:08:33.701Z,98152.66
2023-01-19T06:11:02.383Z,98158.25
2023-01-19T06:13:30.946Z,98158.25
2023-01-19T06:16:00.256Z,98162.22
2023-01-19T06:18:30.637Z,98162.59
2023-01-19T06:20:59.566Z,98160.00
2023-01-19T06:23:30.215Z,98164.16
2023-01-19T06:25:59.071Z,98157.69
2023-01-19T06:28:27.918Z,98157.56
2023-01-19T06:30:57.517Z,98160.78
2023-01-19T06:33:27.927Z,98166.72
2023-01-19T06:35:58.014Z,98172.94
2023-01-19T06:38:26.790Z,98165.84
2023-01-19T06:40:58.458Z,98164.75
2023-01-19T06:43:27.627Z,98164.59
2023-01-19T06:45:57.222Z,98166.56
2023-01-19T06:48:25.894Z,98173.09
2023-01-19T06:50:54.904Z,98168.31
2023-01-19T06:53:27.719Z,98172.81
2023-01-19T06:55:59.715Z,98166.88
2023-01-19T06:58:29.201Z,98169.34
2023-01-19T07:01:02.172Z,98172.69
2023-01-19T07:03:31.434Z,98186.81
2023-01-19T07:06:02.270Z,98178.38
2023-01-19T07:08:32.256Z,98179.03
2023-01-19T07:11:25.848Z,98179.03
2023-01-19T07:13:51.704Z,98174.25
2023-01-19T07:16:20.566Z,98176.81
2023-01-19T07:18:49.750Z,98183.56
2023-01-19T07:21:19.083Z,98181.00
2023-01-19T07:23:50.568Z,98182.91
2023-01-19T07:26:21.341Z,98189.34
2023-01-19T07:28:50.254Z,98197.66
2023-01-19T07:31:19.586Z,98194.16
2023-01-19T07:33:48.411Z,98205.38
2023-01-19T07:36:17.109Z,98210.16
2023-01-19T07:38:45.826Z,98207.75
2023-01-19T07:41:15.843Z,98209.84
2023-01-19T07:43:44.471Z,98206.81
2023-01-19T07:46:13.212Z,98202.69
2023-01-19T07:48:44.283Z,98205.63
2023-01-19T07:51:17.824Z,98210.28
2023-01-19T07:53:46.516Z,98205.97
2023-01-19T07:56:16.552Z,98211.91
2023-01-19T07:58:45.156Z,98211.66
2023-01-19T08:01:14.604Z,98213.78
2023-01-19T08:03:43.468Z,98223.38
2023-01-19T08:06:20.782Z,98225.59
2023-01-19T08:08:49.760Z,98220.81
2023-01-19T08:11:19.725Z,98226.75
2023-01-19T08:13:48.340Z,98235.41
2023-01-19T08:16:17.002Z,98233.00
2023-01-19T08:18:45.599Z,98230.22
2023-01-19T08:21:14.275Z,98235.50
2023-01-19T08:23:42.995Z,98241.22
2023-01-19T08:26:27.357Z,98242.63
2023-01-19T08:28:56.597Z,98251.72
2023-01-19T08:31:25.445Z,98252.69
2023-01-19T08:33:54.192Z,98241.81
2023-01-19T08:36:24.899Z,98247.78
2023-01-19T08:38:53.828Z,98247.69
2023-01-19T08:41:23.779Z,98249.38
2023-01-19T08:43:52.497Z,98257.91
2023-01-19T08:46:21.891Z,98247.75
2023-01-19T08:48:50.751Z,98249.22
2023-01-19T08:51:19.832Z,98253.25
2023-01-19T08:53:48.675Z,98248.03
2023-01-19T08:56:20.338Z,98249.56
2023-01-19T08:59:03.541Z,98256.25
2023-01-19T09:01:37.709Z,98257.88
2023-01-19T09:04:06.785Z,98259.72
2023-01-19T09:06:35.631Z,98259.19
2023-01-19T09:09:04.512Z,98251.84
2023-01-19T09:11:34.900Z,98252.72
2023-01-19T09:14:05.644Z,98250.97
2023-01-19T09:16:34.302Z,98255.47
2023-01-19T09:19:02.964Z,98251.50
2023-01-19T09:21:31.618Z,98254.56
2023-01-19T09:24:00.800Z,98258.13
2023-01-19T09:26:30.271Z,98265.47
2023-01-19T09:29:00.479Z,98266.47
2023-01-19T09:31:30.666Z,98273.22
2023-01-19T09:33:59.328Z,98273.72
2023-01-19T09:36:27.977Z,98276.13
2023-01-19T09:38:56.616Z,98271.03
2023-01-19T09:41:26.320Z,98276.66
2023-01-19T09:43:58.268Z,98271.19
2023-01-19T09:46:34.363Z,98283.06
2023-01-19T09:49:06.544Z,98276.78
2023-01-19T09:51:37.941Z,98272.47
2023-01-19T09:54:13.043Z,98274.72
2023-01-19T09:56:41.913Z,98270.38
2023-01-19T09:59:19.438Z,98270.06
2023-01-19T10:02:02.698Z,98272.47
2023-01-19T10:04:33.661Z,98264.25
2023-01-19T10:07:15.129Z,98264.59
2023-01-19T10:10:02.565Z,98275.03
2023-01-19T10:12:40.580Z,98280.34
2023-01-19T10:15:18.340Z,98280.69
2023-01-19T10:17:56.579Z,98274.91
2023-01-19T10:20:29.620Z,98273.28
2023-01-19T10:22:59.750Z,98269.28
2023-01-19T10:25:28.877Z,98265.25
2023-01-19T10:27:58.997Z,98271.22
2023-01-19T10:30:30.420Z,98258.03
2023-01-19T10:33:00.811Z,98258.19
2023-01-19T10:35:30.567Z,98257.88
2023-01-19T10:38:01.961Z,98262.19
2023-01-19T10:40:34.570Z,98257.03
2023-01-19T10:43:03.808Z,98256.53
2023-01-19T10:45:32.959Z,98259.44
2023-01-19T10:48:08.680Z,98249.28
2023-01-19T10:50:39.794Z,98247.50
2023-01-19T10:53:21.839Z,98254.06
2023-01-19T10:56:11.776Z,98239.72
2023-01-19T10:58:41.350Z,98245.69
2023-01-19T11:01:16.429Z,98238.94
2023-01-19T11:03:46.870Z,98247.75
2023-01-19T11:06:25.081Z,98240.00
2023-01-19T11:08:55.058Z,98241.31
2023-01-19T11:11:24.806Z,98243.38
2023-01-19T11:14:09.991Z,98239.94
2023-01-19T11:16:39.915Z,98243.31
2023-01-19T11:19:19.958Z,98245.16
2023-01-19T11:21:48.712Z,98236.94
2023-01-19T11:24:17.789Z,98240.03
2023-01-19T11:26:48.901Z,98243.22
2023-01-19T11:29:20.184Z,98247.25
2023-01-19T11:31:49.510Z,98239.66
2023-01-19T11:34:29.442Z,98244.28
2023-01-19T11:36:59.939Z,98244.78
2023-01-19T11:39:30.623Z,98235.44
2023-01-19T11:42:01.038Z,98240.91
2023-01-19T11:44:32.485Z,98234.94
2023-01-19T11:47:04.455Z,98229.34
2023-01-19T11:49:46.645Z,98227.03
2023-01-19T11:52:23.033Z,98221.44
2023-01-19T11:54:56.667Z,98220.78
2023-01-19T11:57:25.723Z,98209.22
2023-01-19T11:59:55.167Z,98208.66
2023-01-19T12:02:27.511Z,98207.25
2023-01-19T12:05:00.112Z,98209.59
2023-01-19T12:07:31.289Z,98204.88
2023-01-19T12:10:07.843Z,98208.72
2023-01-19T12:12:39.935Z,98205.44
2023-01-19T12:15:12.808Z,98200.44
2023-01-19T12:17:46.752Z,98207.63
2023-01-19T12:20:26.650Z,98199.13
2023-01-19T12:23:02.215Z,98203.75
2023-01-19T12:25:37.125Z,98208.91
2023-01-19T12:28:07.748Z,98216.97
2023-01-19T12:30:37.485Z,98204.88
2023-01-19T12:33:23.382Z,98209.88
2023-01-19T12:35:58.293Z,98208.78
2023-01-19T12:38:37.482Z,98205.75
2023-01-19T12:41:24.346Z,98206.53
2023-01-19T12:44:21.288Z,98209.47
2023-01-19T12:46:51.473Z,98210.72
2023-01-19T12:49:26.212Z,98208.78
2023-01-19T12:52:12.447Z,98218.47
2023-01-19T12:54:43.921Z,98203.19
2023-01-19T12:57:20.480Z,98220.16
2023-01-19T12:59:56.984Z,98222.75
2023-01-19T13:02:43.046Z,98223.66
2023-01-19T13:05:18.218Z,98218.72
2023-01-19T13:08:16.858Z,98217.81
2023-01-19T13:11:13.002Z,98221.22
2023-01-19T13:13:43.760Z,98209.28
2023-01-19T13:16:49.381Z,98216.28
2023-01-19T13:19:19.607Z,98215.38
2023-01-19T13:21:49.498Z,98212.31
2023-01-19T13:24:22.368Z,98211.09
2023-01-19T13:26:57.480Z,98206.38
2023-01-19T13:29:29.960Z,98212.66
2023-01-19T13:32:02.690Z,98197.59
2023-01-19T13:34:33.296Z,98217.66
2023-01-19T13:37:02.185Z,98222.00
2023-01-19T13:39:38.116Z,98221.84
2023-01-19T13:42:09.170Z,98209.66
2023-01-19T13:44:43.566Z,98223.44
2023-01-19T13:47:17.539Z,98229.03
2023-01-19T13:49:48.545Z,98230.03
2023-01-19T13:52:21.174Z,98232.31
2023-01-19T13:54:53.225Z,98231.34
2023-01-19T13:57:24.135Z,98236.91
2023-01-19T14:00:07.276Z,98237.66
2023-01-19T14:02:36.069Z,98248.66
2023-01-19T14:05:14.668Z,98242.50
2023-01-19T14:07:43.439Z,98240.75
2023-01-19T14:10:16.647Z,98243.00
2023-01-19T14:12:58.516Z,98236.91
2023-01-19T14:15:28.114Z,98239.66
2023-01-19T14:18:10.912Z,98238.81
2023-01-19T14:20:39.848Z,98241.56
2023-01-19T14:23:43.212Z,98237.25
2023-01-19T14:26:40.017Z,98233.06
2023-01-19T14:29:15.582Z,98226.94
2023-01-19T14:31:45.486Z,98235.78
2023-01-19T14:34:33.841Z,98227.41
2023-01-19T14:37:04.074Z,98231.91
2023-01-19T14:39:35.832Z,98229.50
2023-01-19T14:42:06.565Z,98230.31
2023-01-19T14:44:37.583Z,98236.91
2023-01-19T14:47:07.584Z,98234.31
2023-01-19T14:49:37.627Z,98230.66
2023-01-19T14:52:08.773Z,98230.47
2023-01-19T14:54:40.229Z,98233.50
2023-01-19T14:57:12.250Z,98232.88
2023-01-19T14:59:41.175Z,98230.91
2023-01-19T15:02:10.232Z,98231.44
2023-01-19T15:04:38.972Z,98239.16
2023-01-19T15:07:08.319Z,98236.59
2023-01-19T15:09:37.032Z,98236.75
2023-01-19T15:12:08.172Z,98233.06
2023-01-19T15:14:36.754Z,98232.41
2023-01-19T15:17:05.451Z,98238.72
2023-01-19T15:19:34.092Z,98235.31
2023-01-19T15:22:02.762Z,98230.06
2023-01-19T15:24:31.418Z,98225.69
2023-01-19T15:27:01.929Z,98229.53
2023-01-19T15:29:32.372Z,98230.69
2023-01-19T15:32:02.229Z,98237.63
2023-01-19T15:34:31.643Z,98232.28
2023-01-19T15:37:00.475Z,98229.19
2023-01-19T15:39:29.241Z,98229.72
2023-01-19T15:41:57.936Z,98224.25
2023-01-19T15:44:26.667Z,98230.06
2023-01-19T15:46:57.354Z,98225.88
2023-01-19T15:49:26.202Z,98221.00
2023-01-19T15:51:54.877Z,98223.75
2023-01-19T15:54:23.532Z,98232.78
2023-01-19T15:56:52.786Z,98226.03
2023-01-19T15:59:21.460Z,98230.38
2023-01-19T16:01:50.763Z,98231.19
2023-01-19T16:04:20.938Z,98228.28
2023-01-19T16:06:50.000Z,98228.44
2023-01-19T16:09:20.092Z,98216.75
2023-01-19T16:11:48.789Z,98229.94
2023-01-19T16:14:17.800Z,98232.78
2023-01-19T16:16:46.927Z,98224.09
2023-01-19T16:19:16.450Z,98232.94
2023-01-19T16:21:46.399Z,98238.28
2023-01-19T16:24:15.005Z,98236.34
2023-01-19T16:26:43.653Z,98236.69
2023-01-19T16:29:12.309Z,98235.06
2023-01-19T16:31:42.488Z,98229.94
2023-01-19T16:34:11.431Z,98233.47
2023-01-19T16:36:41.457Z,98227.69
2023-01-19T16:39:13.269Z,98228.31
2023-01-19T16:41:42.325Z,98237.47
2023-01-19T16:44:12.405Z,98223.47
2023-01-19T16:46:43.877Z,98231.19
2023-01-19T16:49:14.287Z,98228.59
2023-01-19T16:51:43.493Z,98231.81
2023-01-19T16:54:14.365Z,98229.59
2023-01-19T16:56:43.301Z,98232.94
2023-01-19T16:59:12.917Z,98240.84
2023-01-19T17:01:43.809Z,98241.84
2023-01-19T17:04:12.573Z,98242.81
2023-01-19T17:06:41.274Z,98243.78
2023-01-19T17:09:10.454Z,98236.03
2023-01-19T17:11:41.190Z,98242.53
2023-01-19T17:14:11.896Z,98234.50
2023-01-19T17:16:40.718Z,98232.22
2023-01-19T17:19:10.064Z,98231.59
2023-01-19T17:21:38.706Z,98234.19
2023-01-19T17:24:08.039Z,98239.16
2023-01-19T17:26:36.685Z,98235.28
2023-01-19T17:29:08.319Z,98238.38
2023-01-19T17:31:37.904Z,98246.44
2023-01-19T17:34:06.970Z,98241.91
2023-01-19T17:36:35.604Z,98239.16
2023-01-19T17:39:06.966Z,98228.72
2023-01-19T17:41:36.385Z,98242.88
2023-01-19T17:44:07.026Z,98247.84
2023-01-19T17:46:37.287Z,98243.03
2023-01-19T17:49:07.764Z,98246.13
2023-01-19T17:51:36.656Z,98236.28
2023-01-19T17:54:05.311Z,98242.22
2023-01-19T17:56:37.489Z,98248.00
2023-01-19T17:59:08.104Z,98251.88
2023-01-19T18:01:39.915Z,98252.53
2023-01-19T18:04:09.471Z,98247.41
2023-01-19T18:06:38.817Z,98243.88
2023-01-19T18:09:07.887Z,98249.16
2023-01-19T18:11:36.563Z,98253.22
2023-01-19T18:14:06.968Z,98250.00
2023-01-19T18:16:35.813Z,98255.16
2023-01-19T18:19:04.501Z,98253.53
2023-01-19T18:21:33.155Z,98259.19
2023-01-19T18:24:03.098Z,98260.16
2023-01-19T18:26:32.234Z,98259.34
2023-01-19T18:29:01.456Z,98251.78
2023-01-19T18:31:31.845Z,98247.91
2023-01-19T18:34:00.713Z,98253.56
2023-01-19T18:36:31.854Z,98251.47
2023-01-19T18:39:00.473Z,98259.00
2023-01-19T18:41:29.869Z,98254.19
2023-01-19T18:43:59.592Z,98264.75
2023-01-19T18:46:28.342Z,98259.94
2023-01-19T18:48:58.394Z,98255.81
2023-01-19T18:51:27.118Z,98263.88
2023-01-19T18:53:55.781Z,98267.56
2023-01-19T18:56:24.706Z,98264.34
2023-01-19T18:58:53.720Z,98266.31
2023-01-19T19:01:25.308Z,98262.59
2023-01-19T19:03:54.747Z,98261.16
2023-01-19T19:06:26.873Z,98263.72
2023-01-19T19:08:58.199Z,98260.34
2023-01-19T19:11:28.357Z,98260.03
2023-01-19T19:13:58.569Z,98257.72
2023-01-19T19:16:27.264Z,98262.59
2023-01-19T19:18:55.926Z,98262.75
2023-01-19T19:21:26.249Z,98252.78
2023-01-19T19:23:56.663Z,98261.31
2023-01-19T19:26:26.025Z,98255.50
2023-01-19T19:28:54.662Z,98251.38
2023-01-19T19:31:26.069Z,98256.50
2023-01-19T19:33:55.996Z,98249.56
2023-01-19T19:36:27.093Z,98244.91
2023-01-19T19:38:55.993Z,98244.91
2023-01-19T19:41:26.914Z,98247.78
2023-01-19T19:43:56.161Z,98245.03
2023-01-19T19:46:25.107Z,98251.03
2023-01-19T19:48:54.430Z,98244.09
2023-01-19T19:51:25.414Z,98253.59
2023-01-19T19:53:56.876Z,98247.31
2023-01-19T19:56:26.632Z,98255.34
2023-01-19T19:58:56.533Z,98265.97
2023-01-19T20:01:28.123Z,98257.13
2023-01-19T20:03:59.916Z,98263.56
2023-01-19T20:06:29.589Z,98267.94
2023-01-19T20:08:59.524Z,98269.38
2023-01-19T20:11:28.666Z,98267.75
2023-01-19T20:13:57.615Z,98264.25
2023-01-19T20:16:26.426Z,98275.66
2023-01-19T20:18:55.231Z,98273.09
2023-01-19T20:21:25.595Z,98273.59
2023-01-19T20:23:55.458Z,98282.94
2023-01-19T20:26:27.525Z,98285.94
2023-01-19T20:28:59.572Z,98283.22
2023-01-19T20:31:30.195Z,98281.91
2023-01-19T20:34:01.066Z,98289.16
2023-01-19T20:36:29.790Z,98283.53
2023-01-19T20:38:58.999Z,98283.19
2023-01-19T20:41:28.989Z,98279.50
2023-01-19T20:43:57.659Z,98279.34
2023-01-19T20:46:26.319Z,98280.47
2023-01-19T20:48:54.966Z,98287.56
2023-01-19T20:51:25.698Z,98292.84
2023-01-19T20:53:54.291Z,98282.69
2023-01-19T20:56:22.998Z,98296.41
2023-01-19T20:58:53.015Z,98292.38
2023-01-19T21:01:23.749Z,98290.25
2023-01-19T21:03:53.077Z,98295.25
2023-01-19T21:06:22.567Z,98297.97
2023-01-19T21:08:51.288Z,98301.06
2023-01-19T21:11:21.295Z,98306.97
2023-01-19T21:13:50.574Z,98309.72
2023-01-19T21:16:20.658Z,98309.09
2023-01-19T21:18:49.437Z,98312.63
2023-01-19T21:21:29.749Z,98317.78
2023-01-19T21:24:00.460Z,98317.00
2023-01-19T21:26:30.684Z,98321.31
2023-01-19T21:28:59.435Z,98321.47
2023-01-19T21:31:29.592Z,98322.94
2023-01-19T21:33:58.544Z,98321.31
2023-01-19T21:36:27.370Z,98323.59
2023-01-19T21:39:00.373Z,98323.44
2023-01-19T21:41:30.897Z,98324.06
2023-01-19T21:44:01.019Z,98325.69
2023-01-19T21:46:32.990Z,98327.28
2023-01-19T21:49:02.891Z,98331.16
2023-01-19T21:51:34.607Z,98324.41
2023-01-19T21:54:03.952Z,98311.06
2023-01-19T21:56:32.963Z,98324.56
2023-01-19T21:59:03.366Z,98331.16
2023-01-19T22:01:34.228Z,98328.25
2023-01-19T22:04:03.048Z,98332.13
2023-01-19T22:06:31.722Z,98336.47
2023-01-19T22:09:00.771Z,98341.44
2023-01-19T22:11:30.000Z,98338.25
2023-01-19T22:13:59.684Z,98340.50
2023-01-19T22:16:29.191Z,98340.31
2023-01-19T22:19:01.144Z,98345.63
2023-01-19T22:21:33.060Z,98346.94
2023-01-19T22:24:02.905Z,98342.44
2023-01-19T22:26:33.993Z,98350.78
2023-01-19T22:29:03.468Z,98359.47
2023-01-19T22:31:32.439Z,98356.25
2023-01-19T22:34:02.543Z,98356.25
2023-01-19T22:36:33.778Z,98360.91
2023-01-19T22:39:03.447Z,98344.50
2023-01-19T22:41:33.278Z,98346.91
2023-01-19T22:44:03.511Z,98352.06
2023-01-19T22:46:33.647Z,98361.72
2023-01-19T22:49:04.632Z,98358.81
2023-01-19T22:51:33.505Z,98360.09
2023-01-19T22:54:02.493Z,98354.00
2023-01-19T22:56:32.383Z,98348.34
2023-01-19T22:59:01.501Z,98350.94
2023-01-19T23:01:33.287Z,98352.72
2023-01-19T23:04:04.510Z,98352.06
2023-01-19T23:06:34.702Z,98363.78
2023-01-19T23:09:05.810Z,98355.78
2023-01-19T23:11:36.228Z,98356.25
2023-01-19T23:14:05.015Z,98359.78
2023-01-19T23:16:33.659Z,98357.22
2023-01-19T23:19:04.544Z,98360.59
2023-01-19T23:21:33.478Z,98355.13
2023-01-19T23:24:03.497Z,98367.50
2023-01-19T23:26:37.936Z,98358.03
2023-01-19T23:29:08.778Z,98371.69
2023-01-19T23:31:38.772Z,98367.84
2023-01-19T23:34:10.323Z,98368.00
2023-01-19T23:36:40.191Z,98363.00
2023-01-19T23:39:16.664Z,98367.66
2023-01-19T23:41:45.421Z,98372.63
2023-01-19T23:44:14.127Z,98374.91
2023-01-19T23:46:43.837Z,98382.13
2023-01-19T23:49:14.088Z,98386.16
2023-01-19T23:51:42.859Z,98386.50
2023-01-19T23:54:12.208Z,98387.59
2023-01-19T23:56:42.482Z,98386.00
2023-01-19T23:59:12.664Z,98393.22
